sensor_id;sensor_type;location;lat;lon;timestamp;temperature;humidity
26954;DHT22;14508;50.924;11.600;2022-11-09T00:01:38;13.10;90.20
26954;DHT22;14508;50.924;11.600;2022-11-09T00:04:05;13.10;89.90
26954;DHT22;14508;50.924;11.600;2022-11-09T00:06:33;13.20;89.60
26954;DHT22;14508;50.924;11.600;2022-11-09T00:09:02;13.20;89.20
26954;DHT22;14508;50.924;11.600;2022-11-09T00:11:30;13.30;89.00
26954;DHT22;14508;50.924;11.600;2022-11-09T00:13:58;13.30;88.40
26954;DHT22;14508;50.924;11.600;2022-11-09T00:16:25;13.40;88.10
26954;DHT22;14508;50.924;11.600;2022-11-09T00:18:51;13.40;88.10
26954;DHT22;14508;50.924;11.600;2022-11-09T00:21:22;13.40;87.90
26954;DHT22;14508;50.924;11.600;2022-11-09T00:23:49;13.40;87.70
26954;DHT22;14508;50.924;11.600;2022-11-09T00:26:18;13.50;87.20
26954;DHT22;14508;50.924;11.600;2022-11-09T00:28:45;13.50;87.20
26954;DHT22;14508;50.924;11.600;2022-11-09T00:31:15;13.50;87.20
26954;DHT22;14508;50.924;11.600;2022-11-09T00:33:47;13.50;86.90
26954;DHT22;14508;50.924;11.600;2022-11-09T00:36:14;13.50;87.20
26954;DHT22;14508;50.924;11.600;2022-11-09T00:38:41;13.60;87.00
26954;DHT22;14508;50.924;11.600;2022-11-09T00:41:09;13.50;86.70
26954;DHT22;14508;50.924;11.600;2022-11-09T00:43:37;13.60;86.50
26954;DHT22;14508;50.924;11.600;2022-11-09T00:46:04;13.60;86.30
26954;DHT22;14508;50.924;11.600;2022-11-09T00:48:33;13.60;86.20
26954;DHT22;14508;50.924;11.600;2022-11-09T00:51:01;13.60;86.30
26954;DHT22;14508;50.924;11.600;2022-11-09T00:53:29;13.60;86.00
26954;DHT22;14508;50.924;11.600;2022-11-09T00:55:57;13.60;85.90
26954;DHT22;14508;50.924;11.600;2022-11-09T00:58:25;13.60;86.00
26954;DHT22;14508;50.924;11.600;2022-11-09T01:00:54;13.60;85.60
26954;DHT22;14508;50.924;11.600;2022-11-09T01:03:21;13.70;85.60
26954;DHT22;14508;50.924;11.600;2022-11-09T01:05:50;13.60;85.30
26954;DHT22;14508;50.924;11.600;2022-11-09T01:08:17;13.70;85.20
26954;DHT22;14508;50.924;11.600;2022-11-09T01:10:46;13.70;85.30
26954;DHT22;14508;50.924;11.600;2022-11-09T01:13:15;13.70;85.10
26954;DHT22;14508;50.924;11.600;2022-11-09T01:15:44;13.70;85.00
26954;DHT22;14508;50.924;11.600;2022-11-09T01:18:12;13.70;85.00
26954;DHT22;14508;50.924;11.600;2022-11-09T01:20:40;13.70;85.00
26954;DHT22;14508;50.924;11.600;2022-11-09T01:23:09;13.70;84.90
26954;DHT22;14508;50.924;11.600;2022-11-09T01:25:36;13.70;84.70
26954;DHT22;14508;50.924;11.600;2022-11-09T01:28:04;13.80;84.80
26954;DHT22;14508;50.924;11.600;2022-11-09T01:30:33;13.80;84.80
26954;DHT22;14508;50.924;11.600;2022-11-09T01:33:02;13.70;85.00
26954;DHT22;14508;50.924;11.600;2022-11-09T01:35:32;13.80;85.20
26954;DHT22;14508;50.924;11.600;2022-11-09T01:37:59;13.70;85.00
26954;DHT22;14508;50.924;11.600;2022-11-09T01:40:28;13.80;85.10
26954;DHT22;14508;50.924;11.600;2022-11-09T01:42:55;13.80;85.50
26954;DHT22;14508;50.924;11.600;2022-11-09T01:45:25;13.70;85.80
26954;DHT22;14508;50.924;11.600;2022-11-09T01:47:58;13.70;86.30
26954;DHT22;14508;50.924;11.600;2022-11-09T01:50:33;13.70;86.60
26954;DHT22;14508;50.924;11.600;2022-11-09T01:53:04;13.70;87.20
26954;DHT22;14508;50.924;11.600;2022-11-09T01:55:33;13.60;87.40
26954;DHT22;14508;50.924;11.600;2022-11-09T01:58:06;13.50;87.90
26954;DHT22;14508;50.924;11.600;2022-11-09T02:00:33;13.50;88.20
26954;DHT22;14508;50.924;11.600;2022-11-09T02:03:06;13.50;88.80
26954;DHT22;14508;50.924;11.600;2022-11-09T02:05:36;13.40;88.90
26954;DHT22;14508;50.924;11.600;2022-11-09T02:08:06;13.40;88.90
26954;DHT22;14508;50.924;11.600;2022-11-09T02:10:41;13.40;89.20
26954;DHT22;14508;50.924;11.600;2022-11-09T02:13:11;13.40;89.50
26954;DHT22;14508;50.924;11.600;2022-11-09T02:15:39;13.30;89.70
26954;DHT22;14508;50.924;11.600;2022-11-09T02:18:07;13.30;90.00
26954;DHT22;14508;50.924;11.600;2022-11-09T02:20:45;13.20;90.20
26954;DHT22;14508;50.924;11.600;2022-11-09T02:23:12;13.20;90.40
26954;DHT22;14508;50.924;11.600;2022-11-09T02:25:40;13.20;90.60
26954;DHT22;14508;50.924;11.600;2022-11-09T02:28:08;13.10;90.80
26954;DHT22;14508;50.924;11.600;2022-11-09T02:30:36;13.10;90.90
26954;DHT22;14508;50.924;11.600;2022-11-09T02:33:04;13.00;91.00
26954;DHT22;14508;50.924;11.600;2022-11-09T02:35:31;13.00;91.10
26954;DHT22;14508;50.924;11.600;2022-11-09T02:37:59;13.00;91.20
26954;DHT22;14508;50.924;11.600;2022-11-09T02:40:30;13.10;91.20
26954;DHT22;14508;50.924;11.600;2022-11-09T02:42:59;13.10;91.30
26954;DHT22;14508;50.924;11.600;2022-11-09T02:45:26;13.10;91.50
26954;DHT22;14508;50.924;11.600;2022-11-09T02:47:53;13.10;91.40
26954;DHT22;14508;50.924;11.600;2022-11-09T02:50:20;13.10;91.40
26954;DHT22;14508;50.924;11.600;2022-11-09T02:52:47;13.10;91.30
26954;DHT22;14508;50.924;11.600;2022-11-09T02:55:16;13.10;91.30
26954;DHT22;14508;50.924;11.600;2022-11-09T02:57:42;13.20;91.50
26954;DHT22;14508;50.924;11.600;2022-11-09T03:00:12;13.20;91.60
26954;DHT22;14508;50.924;11.600;2022-11-09T03:02:41;13.20;91.70
26954;DHT22;14508;50.924;11.600;2022-11-09T03:05:08;13.20;91.90
26954;DHT22;14508;50.924;11.600;2022-11-09T03:07:38;13.30;92.00
26954;DHT22;14508;50.924;11.600;2022-11-09T03:10:05;13.30;92.00
26954;DHT22;14508;50.924;11.600;2022-11-09T03:12:35;13.30;92.00
26954;DHT22;14508;50.924;11.600;2022-11-09T03:15:07;13.30;92.20
26954;DHT22;14508;50.924;11.600;2022-11-09T03:17:36;13.30;92.50
26954;DHT22;14508;50.924;11.600;2022-11-09T03:20:03;13.30;92.60
26954;DHT22;14508;50.924;11.600;2022-11-09T03:22:30;13.30;92.70
26954;DHT22;14508;50.924;11.600;2022-11-09T03:24:57;13.40;92.90
26954;DHT22;14508;50.924;11.600;2022-11-09T03:27:24;13.40;93.10
26954;DHT22;14508;50.924;11.600;2022-11-09T03:29:53;13.40;93.20
26954;DHT22;14508;50.924;11.600;2022-11-09T03:32:20;13.40;93.30
26954;DHT22;14508;50.924;11.600;2022-11-09T03:34:47;13.40;93.50
26954;DHT22;14508;50.924;11.600;2022-11-09T03:37:16;13.40;93.50
26954;DHT22;14508;50.924;11.600;2022-11-09T03:39:43;13.40;93.50
26954;DHT22;14508;50.924;11.600;2022-11-09T03:42:10;13.40;93.60
26954;DHT22;14508;50.924;11.600;2022-11-09T03:44:38;13.40;93.80
26954;DHT22;14508;50.924;11.600;2022-11-09T03:47:06;13.50;94.30
26954;DHT22;14508;50.924;11.600;2022-11-09T03:49:33;13.40;95.00
26954;DHT22;14508;50.924;11.600;2022-11-09T03:51:59;13.40;95.50
26954;DHT22;14508;50.924;11.600;2022-11-09T03:54:27;13.40;96.10
26954;DHT22;14508;50.924;11.600;2022-11-09T03:56:54;13.40;96.70
26954;DHT22;14508;50.924;11.600;2022-11-09T03:59:20;13.40;97.10
26954;DHT22;14508;50.924;11.600;2022-11-09T04:01:47;13.40;98.00
26954;DHT22;14508;50.924;11.600;2022-11-09T04:04:15;13.30;98.20
26954;DHT22;14508;50.924;11.600;2022-11-09T04:06:42;13.30;99.20
26954;DHT22;14508;50.924;11.600;2022-11-09T04:09:09;13.30;99.70
26954;DHT22;14508;50.924;11.600;2022-11-09T04:11:36;13.30;99.70
26954;DHT22;14508;50.924;11.600;2022-11-09T04:14:03;13.30;99.90
26954;DHT22;14508;50.924;11.600;2022-11-09T04:16:30;13.20;99.90
26954;DHT22;14508;50.924;11.600;2022-11-09T04:18:57;13.20;99.90
26954;DHT22;14508;50.924;11.600;2022-11-09T04:21:25;13.20;99.90
26954;DHT22;14508;50.924;11.600;2022-11-09T04:23:52;13.20;99.90
26954;DHT22;14508;50.924;11.600;2022-11-09T04:26:19;13.20;99.90
26954;DHT22;14508;50.924;11.600;2022-11-09T04:28:46;13.10;99.90
26954;DHT22;14508;50.924;11.600;2022-11-09T04:31:13;13.10;99.90
26954;DHT22;14508;50.924;11.600;2022-11-09T04:33:40;13.10;99.90
26954;DHT22;14508;50.924;11.600;2022-11-09T04:36:07;13.10;99.90
26954;DHT22;14508;50.924;11.600;2022-11-09T04:38:36;13.10;99.90
26954;DHT22;14508;50.924;11.600;2022-11-09T04:41:03;13.00;99.90
26954;DHT22;14508;50.924;11.600;2022-11-09T04:43:30;13.00;99.90
26954;DHT22;14508;50.924;11.600;2022-11-09T04:46:01;13.00;99.90
26954;DHT22;14508;50.924;11.600;2022-11-09T04:48:28;12.90;99.90
26954;DHT22;14508;50.924;11.600;2022-11-09T04:50:58;12.90;99.90
26954;DHT22;14508;50.924;11.600;2022-11-09T04:53:26;12.90;99.90
26954;DHT22;14508;50.924;11.600;2022-11-09T04:55:54;12.80;99.90
26954;DHT22;14508;50.924;11.600;2022-11-09T04:58:21;12.80;99.90
26954;DHT22;14508;50.924;11.600;2022-11-09T05:00:48;12.70;99.90
26954;DHT22;14508;50.924;11.600;2022-11-09T05:03:17;12.70;99.90
26954;DHT22;14508;50.924;11.600;2022-11-09T05:05:44;12.70;99.90
26954;DHT22;14508;50.924;11.600;2022-11-09T05:08:11;12.60;99.90
26954;DHT22;14508;50.924;11.600;2022-11-09T05:10:38;12.60;99.90
26954;DHT22;14508;50.924;11.600;2022-11-09T05:13:07;12.50;99.90
26954;DHT22;14508;50.924;11.600;2022-11-09T05:15:35;12.50;99.90
26954;DHT22;14508;50.924;11.600;2022-11-09T05:18:03;12.50;99.90
26954;DHT22;14508;50.924;11.600;2022-11-09T05:20:30;12.50;99.90
26954;DHT22;14508;50.924;11.600;2022-11-09T05:22:58;12.50;99.90
26954;DHT22;14508;50.924;11.600;2022-11-09T05:25:42;12.50;99.90
26954;DHT22;14508;50.924;11.600;2022-11-09T05:28:11;12.50;99.90
26954;DHT22;14508;50.924;11.600;2022-11-09T05:30:38;12.40;99.90
26954;DHT22;14508;50.924;11.600;2022-11-09T05:33:05;12.40;99.90
26954;DHT22;14508;50.924;11.600;2022-11-09T05:35:32;12.40;99.90
26954;DHT22;14508;50.924;11.600;2022-11-09T05:37:59;12.40;99.90
26954;DHT22;14508;50.924;11.600;2022-11-09T05:40:26;12.40;99.90
26954;DHT22;14508;50.924;11.600;2022-11-09T05:42:53;12.40;99.90
26954;DHT22;14508;50.924;11.600;2022-11-09T05:45:22;12.40;99.90
26954;DHT22;14508;50.924;11.600;2022-11-09T05:47:50;12.40;99.90
26954;DHT22;14508;50.924;11.600;2022-11-09T05:50:17;12.40;99.90
26954;DHT22;14508;50.924;11.600;2022-11-09T05:52:49;12.40;99.90
26954;DHT22;14508;50.924;11.600;2022-11-09T05:55:17;12.40;99.90
26954;DHT22;14508;50.924;11.600;2022-11-09T05:57:44;12.40;99.90
26954;DHT22;14508;50.924;11.600;2022-11-09T06:00:12;12.40;99.90
26954;DHT22;14508;50.924;11.600;2022-11-09T06:02:40;12.30;99.90
26954;DHT22;14508;50.924;11.600;2022-11-09T06:05:08;12.30;99.90
26954;DHT22;14508;50.924;11.600;2022-11-09T06:07:35;12.30;99.90
26954;DHT22;14508;50.924;11.600;2022-11-09T06:10:02;12.30;99.90
26954;DHT22;14508;50.924;11.600;2022-11-09T06:12:29;12.30;99.90
26954;DHT22;14508;50.924;11.600;2022-11-09T06:14:56;12.30;99.90
26954;DHT22;14508;50.924;11.600;2022-11-09T06:17:23;12.30;99.90
26954;DHT22;14508;50.924;11.600;2022-11-09T06:19:51;12.20;99.90
26954;DHT22;14508;50.924;11.600;2022-11-09T06:22:18;12.20;99.90
26954;DHT22;14508;50.924;11.600;2022-11-09T06:24:44;12.20;99.90
26954;DHT22;14508;50.924;11.600;2022-11-09T06:27:11;12.20;99.90
26954;DHT22;14508;50.924;11.600;2022-11-09T06:29:38;12.20;99.90
26954;DHT22;14508;50.924;11.600;2022-11-09T06:32:05;12.20;99.90
26954;DHT22;14508;50.924;11.600;2022-11-09T06:34:32;12.20;99.90
26954;DHT22;14508;50.924;11.600;2022-11-09T06:37:00;12.20;99.90
26954;DHT22;14508;50.924;11.600;2022-11-09T06:39:27;12.20;99.90
26954;DHT22;14508;50.924;11.600;2022-11-09T06:41:54;12.20;99.90
26954;DHT22;14508;50.924;11.600;2022-11-09T06:44:20;12.20;99.90
26954;DHT22;14508;50.924;11.600;2022-11-09T06:46:47;12.20;99.90
26954;DHT22;14508;50.924;11.600;2022-11-09T06:49:14;12.20;99.90
26954;DHT22;14508;50.924;11.600;2022-11-09T06:51:41;12.20;99.90
26954;DHT22;14508;50.924;11.600;2022-11-09T06:54:09;12.20;99.90
26954;DHT22;14508;50.924;11.600;2022-11-09T06:56:36;12.20;99.90
26954;DHT22;14508;50.924;11.600;2022-11-09T06:59:03;12.20;99.90
26954;DHT22;14508;50.924;11.600;2022-11-09T07:01:30;12.20;99.90
26954;DHT22;14508;50.924;11.600;2022-11-09T07:03:56;12.20;99.90
26954;DHT22;14508;50.924;11.600;2022-11-09T07:06:24;12.20;99.90
26954;DHT22;14508;50.924;11.600;2022-11-09T07:08:54;12.20;99.90
26954;DHT22;14508;50.924;11.600;2022-11-09T07:11:22;12.20;99.90
26954;DHT22;14508;50.924;11.600;2022-11-09T07:13:49;12.20;99.90
26954;DHT22;14508;50.924;11.600;2022-11-09T07:16:16;12.20;99.90
26954;DHT22;14508;50.924;11.600;2022-11-09T07:18:43;12.20;99.90
26954;DHT22;14508;50.924;11.600;2022-11-09T07:21:11;12.20;99.90
26954;DHT22;14508;50.924;11.600;2022-11-09T07:23:38;12.20;99.90
26954;DHT22;14508;50.924;11.600;2022-11-09T07:26:05;12.30;99.90
26954;DHT22;14508;50.924;11.600;2022-11-09T07:28:34;12.30;99.90
26954;DHT22;14508;50.924;11.600;2022-11-09T07:31:00;12.30;99.90
26954;DHT22;14508;50.924;11.600;2022-11-09T07:33:27;12.30;99.90
26954;DHT22;14508;50.924;11.600;2022-11-09T07:35:58;12.30;99.90
26954;DHT22;14508;50.924;11.600;2022-11-09T07:38:25;12.30;99.90
26954;DHT22;14508;50.924;11.600;2022-11-09T07:40:52;12.30;99.90
26954;DHT22;14508;50.924;11.600;2022-11-09T07:43:19;12.30;99.90
26954;DHT22;14508;50.924;11.600;2022-11-09T07:45:51;12.30;99.90
26954;DHT22;14508;50.924;11.600;2022-11-09T07:48:18;12.40;99.90
26954;DHT22;14508;50.924;11.600;2022-11-09T07:50:45;12.40;99.90
26954;DHT22;14508;50.924;11.600;2022-11-09T07:53:13;12.40;99.90
26954;DHT22;14508;50.924;11.600;2022-11-09T07:55:40;12.40;99.90
26954;DHT22;14508;50.924;11.600;2022-11-09T07:58:12;12.40;99.90
26954;DHT22;14508;50.924;11.600;2022-11-09T08:00:40;12.50;99.90
26954;DHT22;14508;50.924;11.600;2022-11-09T08:03:09;12.50;99.90
26954;DHT22;14508;50.924;11.600;2022-11-09T08:05:37;12.60;99.90
26954;DHT22;14508;50.924;11.600;2022-11-09T08:08:05;12.70;99.90
26954;DHT22;14508;50.924;11.600;2022-11-09T08:10:33;12.70;99.90
26954;DHT22;14508;50.924;11.600;2022-11-09T08:13:03;12.80;99.90
26954;DHT22;14508;50.924;11.600;2022-11-09T08:15:31;12.80;99.90
26954;DHT22;14508;50.924;11.600;2022-11-09T08:17:58;12.90;99.90
26954;DHT22;14508;50.924;11.600;2022-11-09T08:20:27;12.90;99.90
26954;DHT22;14508;50.924;11.600;2022-11-09T08:22:54;12.90;99.90
26954;DHT22;14508;50.924;11.600;2022-11-09T08:25:21;12.90;99.90
26954;DHT22;14508;50.924;11.600;2022-11-09T08:27:48;12.90;99.90
26954;DHT22;14508;50.924;11.600;2022-11-09T08:30:16;12.90;99.90
26954;DHT22;14508;50.924;11.600;2022-11-09T08:32:44;12.90;99.90
26954;DHT22;14508;50.924;11.600;2022-11-09T08:35:13;12.90;99.90
26954;DHT22;14508;50.924;11.600;2022-11-09T08:37:43;13.00;99.90
26954;DHT22;14508;50.924;11.600;2022-11-09T08:40:11;13.00;99.90
26954;DHT22;14508;50.924;11.600;2022-11-09T08:42:39;13.10;99.90
26954;DHT22;14508;50.924;11.600;2022-11-09T08:45:07;13.20;99.90
26954;DHT22;14508;50.924;11.600;2022-11-09T08:47:34;13.20;99.90
26954;DHT22;14508;50.924;11.600;2022-11-09T08:50:01;13.30;99.90
26954;DHT22;14508;50.924;11.600;2022-11-09T08:52:30;13.40;99.90
26954;DHT22;14508;50.924;11.600;2022-11-09T08:54:58;13.50;99.90
26954;DHT22;14508;50.924;11.600;2022-11-09T08:57:25;13.60;99.90
26954;DHT22;14508;50.924;11.600;2022-11-09T08:59:52;13.60;99.90
26954;DHT22;14508;50.924;11.600;2022-11-09T09:02:19;13.60;99.90
26954;DHT22;14508;50.924;11.600;2022-11-09T09:04:46;13.60;99.90
26954;DHT22;14508;50.924;11.600;2022-11-09T09:07:13;13.60;99.90
26954;DHT22;14508;50.924;11.600;2022-11-09T09:09:40;13.70;99.90
26954;DHT22;14508;50.924;11.600;2022-11-09T09:12:08;13.80;99.90
26954;DHT22;14508;50.924;11.600;2022-11-09T09:14:35;13.90;99.90
26954;DHT22;14508;50.924;11.600;2022-11-09T09:17:02;14.00;99.90
26954;DHT22;14508;50.924;11.600;2022-11-09T09:19:30;14.00;99.90
26954;DHT22;14508;50.924;11.600;2022-11-09T09:21:57;14.00;99.90
26954;DHT22;14508;50.924;11.600;2022-11-09T09:24:24;14.00;99.90
26954;DHT22;14508;50.924;11.600;2022-11-09T09:26:51;14.00;99.90
26954;DHT22;14508;50.924;11.600;2022-11-09T09:29:20;14.00;99.90
26954;DHT22;14508;50.924;11.600;2022-11-09T09:31:47;14.10;99.90
26954;DHT22;14508;50.924;11.600;2022-11-09T09:34:14;14.10;99.90
26954;DHT22;14508;50.924;11.600;2022-11-09T09:36:41;14.30;99.90
26954;DHT22;14508;50.924;11.600;2022-11-09T09:39:07;14.40;99.90
26954;DHT22;14508;50.924;11.600;2022-11-09T09:41:37;14.60;99.90
26954;DHT22;14508;50.924;11.600;2022-11-09T09:44:18;14.70;99.90
26954;DHT22;14508;50.924;11.600;2022-11-09T09:46:51;14.90;99.90
26954;DHT22;14508;50.924;11.600;2022-11-09T09:49:25;15.10;99.90
26954;DHT22;14508;50.924;11.600;2022-11-09T09:51:55;15.10;99.90
26954;DHT22;14508;50.924;11.600;2022-11-09T09:54:28;15.20;99.90
26954;DHT22;14508;50.924;11.600;2022-11-09T09:56:58;15.10;99.90
26954;DHT22;14508;50.924;11.600;2022-11-09T09:59:32;15.10;99.90
26954;DHT22;14508;50.924;11.600;2022-11-09T10:02:02;15.10;99.90
26954;DHT22;14508;50.924;11.600;2022-11-09T10:04:33;15.10;99.90
26954;DHT22;14508;50.924;11.600;2022-11-09T10:07:06;15.10;99.90
26954;DHT22;14508;50.924;11.600;2022-11-09T10:12:52;15.00;99.90
26954;DHT22;14508;50.924;11.600;2022-11-09T10:15:26;15.00;99.90
26954;DHT22;14508;50.924;11.600;2022-11-09T10:18:19;15.00;99.90
26954;DHT22;14508;50.924;11.600;2022-11-09T10:21:01;14.90;99.90
26954;DHT22;14508;50.924;11.600;2022-11-09T10:23:39;14.90;99.90
26954;DHT22;14508;50.924;11.600;2022-11-09T10:26:15;14.90;99.90
26954;DHT22;14508;50.924;11.600;2022-11-09T10:28:46;14.90;99.90
26954;DHT22;14508;50.924;11.600;2022-11-09T10:31:17;15.00;99.90
26954;DHT22;14508;50.924;11.600;2022-11-09T10:33:48;15.00;99.90
26954;DHT22;14508;50.924;11.600;2022-11-09T10:36:23;15.00;99.90
26954;DHT22;14508;50.924;11.600;2022-11-09T10:38:52;15.10;99.90
26954;DHT22;14508;50.924;11.600;2022-11-09T10:41:41;15.10;99.90
26954;DHT22;14508;50.924;11.600;2022-11-09T10:44:29;15.10;99.90
26954;DHT22;14508;50.924;11.600;2022-11-09T10:47:16;15.10;99.90
26954;DHT22;14508;50.924;11.600;2022-11-09T10:50:14;15.10;99.90
26954;DHT22;14508;50.924;11.600;2022-11-09T10:53:13;15.10;99.90
26954;DHT22;14508;50.924;11.600;2022-11-09T10:56:10;15.20;99.90
26954;DHT22;14508;50.924;11.600;2022-11-09T10:58:57;15.30;99.90
26954;DHT22;14508;50.924;11.600;2022-11-09T11:01:42;15.50;99.90
26954;DHT22;14508;50.924;11.600;2022-11-09T11:04:28;15.60;99.90
26954;DHT22;14508;50.924;11.600;2022-11-09T11:07:17;15.60;99.90
26954;DHT22;14508;50.924;11.600;2022-11-09T11:10:10;15.70;99.90
26954;DHT22;14508;50.924;11.600;2022-11-09T11:13:21;15.70;99.90
26954;DHT22;14508;50.924;11.600;2022-11-09T11:16:23;15.70;99.90
26954;DHT22;14508;50.924;11.600;2022-11-09T11:19:24;15.70;99.90
26954;DHT22;14508;50.924;11.600;2022-11-09T11:22:21;15.60;99.90
26954;DHT22;14508;50.924;11.600;2022-11-09T11:25:16;15.70;99.90
26954;DHT22;14508;50.924;11.600;2022-11-09T11:28:09;15.60;99.90
26954;DHT22;14508;50.924;11.600;2022-11-09T11:30:55;15.60;99.90
26954;DHT22;14508;50.924;11.600;2022-11-09T11:33:41;15.60;99.90
26954;DHT22;14508;50.924;11.600;2022-11-09T11:36:35;15.60;99.90
26954;DHT22;14508;50.924;11.600;2022-11-09T11:39:33;15.60;99.90
26954;DHT22;14508;50.924;11.600;2022-11-09T11:42:37;15.60;99.90
26954;DHT22;14508;50.924;11.600;2022-11-09T11:45:28;15.70;99.90
26954;DHT22;14508;50.924;11.600;2022-11-09T11:48:38;15.70;99.90
26954;DHT22;14508;50.924;11.600;2022-11-09T11:51:33;15.80;99.90
26954;DHT22;14508;50.924;11.600;2022-11-09T11:54:29;15.90;99.90
26954;DHT22;14508;50.924;11.600;2022-11-09T11:57:22;16.00;99.90
26954;DHT22;14508;50.924;11.600;2022-11-09T12:00:12;16.10;99.90
26954;DHT22;14508;50.924;11.600;2022-11-09T12:03:37;16.20;99.90
26954;DHT22;14508;50.924;11.600;2022-11-09T12:06:53;16.30;99.90
26954;DHT22;14508;50.924;11.600;2022-11-09T12:10:04;16.30;99.90
26954;DHT22;14508;50.924;11.600;2022-11-09T12:12:59;16.40;99.90
26954;DHT22;14508;50.924;11.600;2022-11-09T12:15:50;16.40;99.90
26954;DHT22;14508;50.924;11.600;2022-11-09T12:18:46;16.40;99.90
26954;DHT22;14508;50.924;11.600;2022-11-09T12:21:40;16.40;99.90
26954;DHT22;14508;50.924;11.600;2022-11-09T12:24:32;16.40;99.90
26954;DHT22;14508;50.924;11.600;2022-11-09T12:27:33;16.30;99.90
26954;DHT22;14508;50.924;11.600;2022-11-09T12:30:22;16.30;99.90
26954;DHT22;14508;50.924;11.600;2022-11-09T12:33:12;16.30;99.90
26954;DHT22;14508;50.924;11.600;2022-11-09T12:36:03;16.20;99.90
26954;DHT22;14508;50.924;11.600;2022-11-09T12:38:58;16.20;99.90
26954;DHT22;14508;50.924;11.600;2022-11-09T12:41:45;16.20;99.90
26954;DHT22;14508;50.924;11.600;2022-11-09T12:44:38;16.20;99.90
26954;DHT22;14508;50.924;11.600;2022-11-09T12:47:28;16.40;99.90
26954;DHT22;14508;50.924;11.600;2022-11-09T12:50:16;16.40;99.90
26954;DHT22;14508;50.924;11.600;2022-11-09T12:53:03;16.50;99.90
26954;DHT22;14508;50.924;11.600;2022-11-09T12:55:54;16.50;99.90
26954;DHT22;14508;50.924;11.600;2022-11-09T12:58:41;16.40;99.90
26954;DHT22;14508;50.924;11.600;2022-11-09T13:01:43;16.40;99.80
26954;DHT22;14508;50.924;11.600;2022-11-09T13:04:31;16.40;99.20
26954;DHT22;14508;50.924;11.600;2022-11-09T13:10:26;16.20;98.10
26954;DHT22;14508;50.924;11.600;2022-11-09T13:13:21;16.10;97.50
26954;DHT22;14508;50.924;11.600;2022-11-09T13:19:47;16.10;97.60
26954;DHT22;14508;50.924;11.600;2022-11-09T13:22:59;16.00;98.10
26954;DHT22;14508;50.924;11.600;2022-11-09T13:25:48;16.00;98.30
26954;DHT22;14508;50.924;11.600;2022-11-09T13:29:06;15.90;98.70
26954;DHT22;14508;50.924;11.600;2022-11-09T13:38:31;15.90;99.70
26954;DHT22;14508;50.924;11.600;2022-11-09T13:41:40;15.90;99.90
26954;DHT22;14508;50.924;11.600;2022-11-09T13:44:27;15.90;99.90
26954;DHT22;14508;50.924;11.600;2022-11-09T13:47:20;15.80;99.90
26954;DHT22;14508;50.924;11.600;2022-11-09T13:50:15;15.80;99.90
26954;DHT22;14508;50.924;11.600;2022-11-09T13:53:02;15.70;99.90
26954;DHT22;14508;50.924;11.600;2022-11-09T13:55:47;15.60;99.90
26954;DHT22;14508;50.924;11.600;2022-11-09T13:58:35;15.50;99.90
26954;DHT22;14508;50.924;11.600;2022-11-09T14:01:24;15.50;99.90
26954;DHT22;14508;50.924;11.600;2022-11-09T14:04:23;15.40;99.90
26954;DHT22;14508;50.924;11.600;2022-11-09T14:07:17;15.40;99.90
26954;DHT22;14508;50.924;11.600;2022-11-09T14:10:08;15.40;99.90
26954;DHT22;14508;50.924;11.600;2022-11-09T14:13:15;15.40;99.90
26954;DHT22;14508;50.924;11.600;2022-11-09T14:16:08;15.40;99.90
26954;DHT22;14508;50.924;11.600;2022-11-09T14:19:05;15.40;99.90
26954;DHT22;14508;50.924;11.600;2022-11-09T14:21:53;15.40;99.90
26954;DHT22;14508;50.924;11.600;2022-11-09T14:24:39;15.30;99.90
26954;DHT22;14508;50.924;11.600;2022-11-09T14:27:25;15.30;99.90
26954;DHT22;14508;50.924;11.600;2022-11-09T14:30:17;15.30;99.90
26954;DHT22;14508;50.924;11.600;2022-11-09T14:33:19;15.30;99.90
26954;DHT22;14508;50.924;11.600;2022-11-09T14:36:05;15.30;99.90
26954;DHT22;14508;50.924;11.600;2022-11-09T14:38:50;15.30;99.90
26954;DHT22;14508;50.924;11.600;2022-11-09T14:41:37;15.20;99.90
26954;DHT22;14508;50.924;11.600;2022-11-09T14:44:29;15.20;99.90
26954;DHT22;14508;50.924;11.600;2022-11-09T14:47:23;15.20;99.90
26954;DHT22;14508;50.924;11.600;2022-11-09T14:50:15;15.20;99.90
26954;DHT22;14508;50.924;11.600;2022-11-09T14:53:02;15.20;99.90
26954;DHT22;14508;50.924;11.600;2022-11-09T14:55:49;15.20;99.90
26954;DHT22;14508;50.924;11.600;2022-11-09T14:58:39;15.20;99.90
26954;DHT22;14508;50.924;11.600;2022-11-09T15:01:25;15.20;99.90
26954;DHT22;14508;50.924;11.600;2022-11-09T15:04:12;15.20;99.90
26954;DHT22;14508;50.924;11.600;2022-11-09T15:07:01;15.20;99.90
26954;DHT22;14508;50.924;11.600;2022-11-09T15:09:49;15.10;99.90
26954;DHT22;14508;50.924;11.600;2022-11-09T15:12:35;15.00;99.90
26954;DHT22;14508;50.924;11.600;2022-11-09T15:15:25;14.90;99.90
26954;DHT22;14508;50.924;11.600;2022-11-09T15:18:17;14.90;99.90
26954;DHT22;14508;50.924;11.600;2022-11-09T15:21:16;14.80;99.90
26954;DHT22;14508;50.924;11.600;2022-11-09T15:24:05;14.80;99.90
26954;DHT22;14508;50.924;11.600;2022-11-09T15:26:57;14.70;99.90
26954;DHT22;14508;50.924;11.600;2022-11-09T15:29:42;14.70;99.90
26954;DHT22;14508;50.924;11.600;2022-11-09T15:32:33;14.60;99.90
26954;DHT22;14508;50.924;11.600;2022-11-09T15:35:18;14.60;99.90
26954;DHT22;14508;50.924;11.600;2022-11-09T15:38:04;14.60;99.90
26954;DHT22;14508;50.924;11.600;2022-11-09T15:40:50;14.60;99.90
26954;DHT22;14508;50.924;11.600;2022-11-09T15:43:36;14.60;99.90
26954;DHT22;14508;50.924;11.600;2022-11-09T15:46:24;14.60;99.90
26954;DHT22;14508;50.924;11.600;2022-11-09T15:49:16;14.60;99.90
26954;DHT22;14508;50.924;11.600;2022-11-09T15:52:01;14.60;99.90
26954;DHT22;14508;50.924;11.600;2022-11-09T15:54:46;14.60;99.90
26954;DHT22;14508;50.924;11.600;2022-11-09T15:57:32;14.50;99.90
26954;DHT22;14508;50.924;11.600;2022-11-09T16:00:19;14.50;99.90
26954;DHT22;14508;50.924;11.600;2022-11-09T16:03:05;14.40;99.90
26954;DHT22;14508;50.924;11.600;2022-11-09T16:05:52;14.30;99.90
26954;DHT22;14508;50.924;11.600;2022-11-09T16:08:39;14.30;99.90
26954;DHT22;14508;50.924;11.600;2022-11-09T16:11:25;14.20;99.90
26954;DHT22;14508;50.924;11.600;2022-11-09T16:14:11;14.10;99.90
26954;DHT22;14508;50.924;11.600;2022-11-09T16:16:58;14.10;99.90
26954;DHT22;14508;50.924;11.600;2022-11-09T16:19:43;14.00;99.90
26954;DHT22;14508;50.924;11.600;2022-11-09T16:22:31;14.00;99.90
26954;DHT22;14508;50.924;11.600;2022-11-09T16:25:17;14.00;99.90